createdAt,value
2023-01-17T00:02:19.330Z,97878.88
2023-01-17T00:05:06.015Z,97871.38
2023-01-17T00:07:50.962Z,97880.25
2023-01-17T00:10:20.300Z,97873.53
2023-01-17T00:13:03.600Z,97871.09
2023-01-17T00:15:32.551Z,97865.47
2023-01-17T00:18:00.402Z,97857.22
2023-01-17T00:20:50.057Z,97855.62
2023-01-17T00:23:41.395Z,97866.34
2023-01-17T00:26:20.610Z,97875.22
2023-01-17T00:28:47.115Z,97867.44
2023-01-17T00:31:15.904Z,97861.00
2023-01-17T00:33:42.522Z,97858.06
2023-01-17T00:36:10.032Z,97855.66
2023-01-17T00:38:38.255Z,97860.47
2023-01-17T00:41:07.270Z,97859.97
2023-01-17T00:43:52.939Z,97859.97
2023-01-17T00:46:38.389Z,97868.56
2023-01-17T00:49:24.691Z,97859.72
2023-01-17T00:52:12.482Z,97853.53
2023-01-17T00:54:57.853Z,97862.69
2023-01-17T00:57:43.173Z,97862.44
2023-01-17T01:00:31.366Z,97862.44
2023-01-17T01:03:19.545Z,97868.91
2023-01-17T01:06:04.407Z,97862.47
2023-01-17T01:08:49.888Z,97871.59
2023-01-17T01:11:38.208Z,97870.78
2023-01-17T01:14:24.720Z,97862.75
2023-01-17T01:17:09.776Z,97844.75
2023-01-17T01:19:54.867Z,97836.44
2023-01-17T01:22:42.719Z,97853.63
2023-01-17T01:25:28.173Z,97877.53
2023-01-17T01:28:22.627Z,97876.44
2023-01-17T01:31:07.541Z,97876.72
2023-01-17T01:33:34.128Z,97875.09
2023-01-17T01:36:03.939Z,97879.91
2023-01-17T01:38:33.036Z,97881.00
2023-01-17T01:41:00.654Z,97884.47
2023-01-17T01:43:45.619Z,97892.78
2023-01-17T01:46:21.087Z,97886.34
2023-01-17T01:48:55.411Z,97887.44
2023-01-17T01:51:45.852Z,97883.66
2023-01-17T01:54:19.183Z,97871.31
2023-01-17T01:56:49.317Z,97862.47
2023-01-17T01:59:21.647Z,97846.63
2023-01-17T02:01:53.834Z,97836.44
2023-01-17T02:04:23.116Z,97828.66
2023-01-17T02:06:54.949Z,97835.09
2023-01-17T02:09:24.951Z,97829.72
2023-01-17T02:11:55.025Z,97829.72
2023-01-17T02:14:25.810Z,97811.22
2023-01-17T02:17:02.508Z,97831.63
2023-01-17T02:19:43.515Z,97826.53
2023-01-17T02:22:26.084Z,97833.78
2023-01-17T02:25:34.923Z,97840.47
2023-01-17T02:28:30.081Z,97839.94
2023-01-17T02:31:10.719Z,97835.91
2023-01-17T02:33:41.347Z,97831.63
2023-01-17T02:36:11.574Z,97830.81
2023-01-17T02:38:52.185Z,97832.12
2023-01-17T02:41:22.547Z,97820.06
2023-01-17T02:43:52.462Z,97820.34
2023-01-17T02:46:20.152Z,97818.72
2023-01-17T02:48:49.100Z,97812.81
2023-01-17T02:51:22.739Z,97807.44
2023-01-17T02:54:04.716Z,97790.28
2023-01-17T02:56:58.430Z,97784.38
2023-01-17T02:59:55.079Z,97773.34
2023-01-17T03:02:47.069Z,97773.34
2023-01-17T03:05:21.434Z,97761.28
2023-01-17T03:07:50.342Z,97758.88
2023-01-17T03:10:20.300Z,97754.31
2023-01-17T03:12:48.406Z,97755.13
2023-01-17T03:15:18.554Z,97748.41
2023-01-17T03:17:50.466Z,97739.28
2023-01-17T03:20:18.484Z,97738.78
2023-01-17T03:22:46.142Z,97732.59
2023-01-17T03:25:13.853Z,97723.72
2023-01-17T03:27:41.412Z,97724.28
2023-01-17T03:30:13.046Z,97723.47
2023-01-17T03:32:40.938Z,97725.06
2023-01-17T03:35:08.907Z,97728.53
2023-01-17T03:37:36.494Z,97718.38
2023-01-17T03:40:04.871Z,97713.00
2023-01-17T03:42:32.432Z,97710.84
2023-01-17T03:45:00.004Z,97710.56
2023-01-17T03:47:27.615Z,97705.75
2023-01-17T03:49:57.410Z,97699.03
2023-01-17T03:52:24.982Z,97697.94
2023-01-17T03:54:53.630Z,97686.41
2023-01-17T03:57:21.296Z,97683.44
2023-01-17T03:59:51.367Z,97691.50
2023-01-17T04:02:19.185Z,97693.13
2023-01-17T04:04:46.778Z,97693.91
2023-01-17T04:07:14.762Z,97697.41
2023-01-17T04:09:42.386Z,97688.28
2023-01-17T04:12:10.027Z,97691.50
2023-01-17T04:14:37.591Z,97685.59
2023-01-17T04:17:05.211Z,97685.31
2023-01-17T04:19:36.769Z,97686.41
2023-01-17T04:22:04.826Z,97688.53
2023-01-17T04:24:32.375Z,97690.97
2023-01-17T04:27:00.347Z,97688.00
2023-01-17T04:29:27.916Z,97700.34
2023-01-17T04:31:55.524Z,97701.97
2023-01-17T04:34:23.487Z,97702.78
2023-01-17T04:36:51.130Z,97700.09
2023-01-17T04:39:18.689Z,97695.25
2023-01-17T04:41:49.015Z,97699.56
2023-01-17T04:44:16.610Z,97693.94
2023-01-17T04:46:46.683Z,97693.94
2023-01-17T04:49:14.390Z,97699.31
2023-01-17T04:51:42.018Z,97689.06
2023-01-17T04:54:09.604Z,97696.63
2023-01-17T04:56:37.182Z,97697.44
2023-01-17T04:59:04.810Z,97704.94
2023-01-17T05:01:32.473Z,97694.19
2023-01-17T05:04:00.176Z,97696.88
2023-01-17T05:06:29.891Z,97702.78
2023-01-17T05:08:57.462Z,97699.84
2023-01-17T05:11:25.086Z,97701.72
2023-01-17T05:13:52.729Z,97706.00
2023-01-17T05:16:22.804Z,97704.66
2023-01-17T05:18:55.594Z,97689.88
2023-01-17T05:21:24.750Z,97701.44
2023-01-17T05:23:52.351Z,97697.94
2023-01-17T05:26:20.183Z,97706.81
2023-01-17T05:28:48.036Z,97706.81
2023-01-17T05:31:15.708Z,97703.06
2023-01-17T05:33:43.423Z,97707.63
2023-01-17T05:36:11.091Z,97710.31
2023-01-17T05:38:38.795Z,97712.47
2023-01-17T05:41:08.960Z,97715.69
2023-01-17T05:43:38.718Z,97715.69
2023-01-17T05:46:06.532Z,97715.16
2023-01-17T05:48:34.180Z,97719.44
2023-01-17T05:51:02.064Z,97728.56
2023-01-17T05:53:31.852Z,97736.38
2023-01-17T05:55:59.439Z,97739.06
2023-01-17T05:58:27.261Z,97753.03
2023-01-17T06:00:58.428Z,97750.88
2023-01-17T06:03:26.140Z,97749.00
2023-01-17T06:05:53.734Z,97750.59
2023-01-17T06:08:23.447Z,97767.78
2023-01-17T06:10:51.055Z,97769.41
2023-01-17T06:13:21.827Z,97765.66
2023-01-17T06:15:54.831Z,97765.66
2023-01-17T06:18:22.453Z,97764.84
2023-01-17T06:20:55.090Z,97767.25
2023-01-17T06:23:24.151Z,97775.59
2023-01-17T06:25:51.980Z,97774.50
2023-01-17T06:28:24.628Z,97778.00
2023-01-17T06:30:52.225Z,97773.72
2023-01-17T06:33:21.926Z,97780.16
2023-01-17T06:35:51.241Z,97771.84
2023-01-17T06:38:19.341Z,97782.84
2023-01-17T06:40:49.579Z,97788.72
2023-01-17T06:43:25.814Z,97793.56
2023-01-17T06:45:55.748Z,97806.19
2023-01-17T06:48:23.398Z,97809.94
2023-01-17T06:50:51.028Z,97804.03
2023-01-17T06:53:18.632Z,97816.66
2023-01-17T06:55:46.347Z,97817.19
2023-01-17T06:58:13.916Z,97827.41
2023-01-17T07:00:41.552Z,97830.09
2023-01-17T07:03:19.958Z,97834.91
2023-01-17T07:05:47.916Z,97847.28
2023-01-17T07:08:17.026Z,97841.38
2023-01-17T07:10:48.980Z,97843.78
2023-01-17T07:13:16.641Z,97859.09
2023-01-17T07:15:46.332Z,97855.59
2023-01-17T07:18:14.711Z,97850.50
2023-01-17T07:20:44.504Z,97861.78
2023-01-17T07:23:13.239Z,97866.34
2023-01-17T07:25:40.882Z,97875.47
2023-01-17T07:28:08.522Z,97875.75
2023-01-17T07:30:38.454Z,97872.78
2023-01-17T07:33:06.110Z,97885.41
2023-01-17T07:35:33.707Z,97905.28
2023-01-17T07:38:01.305Z,97900.44
2023-01-17T07:40:30.793Z,97905.28
2023-01-17T07:43:14.398Z,97914.91
2023-01-17T07:45:46.835Z,97913.84
2023-01-17T07:48:15.666Z,97929.94
2023-01-17T07:50:43.283Z,97933.72
2023-01-17T07:53:11.301Z,97934.72
2023-01-17T07:55:41.120Z,97941.97
2023-01-17T07:58:11.209Z,97948.16
2023-01-17T08:00:38.907Z,97953.78
2023-01-17T08:03:06.544Z,97948.13
2023-01-17T08:05:34.242Z,97947.91
2023-01-17T08:08:01.831Z,97957.03
2023-01-17T08:10:29.440Z,97962.19
2023-01-17T08:12:57.029Z,97960.34
2023-01-17T08:15:26.640Z,97964.94
2023-01-17T08:17:54.250Z,97963.47
2023-01-17T08:20:27.492Z,97962.12
2023-01-17T08:22:57.096Z,97968.91
2023-01-17T08:25:25.929Z,97975.69
2023-01-17T08:28:01.193Z,97964.84
2023-01-17T08:30:30.067Z,97969.59
2023-01-17T08:32:57.695Z,97971.13
2023-01-17T08:35:27.897Z,97981.03
2023-01-17T08:37:57.649Z,97989.72
2023-01-17T08:40:25.556Z,97993.06
2023-01-17T08:42:57.577Z,97987.28
2023-01-17T08:45:25.444Z,97997.66
2023-01-17T08:47:53.529Z,98000.28
2023-01-17T08:50:21.609Z,98004.72
2023-01-17T08:52:50.111Z,98014.50
2023-01-17T08:55:18.646Z,98022.34
2023-01-17T08:57:46.506Z,98025.38
2023-01-17T09:00:17.323Z,98026.66
2023-01-17T09:02:46.022Z,98025.28
2023-01-17T09:05:16.059Z,98018.63
2023-01-17T09:07:43.701Z,98021.22
2023-01-17T09:10:12.800Z,98013.63
2023-01-17T09:12:40.467Z,98008.25
2023-01-17T09:15:08.905Z,98012.94
2023-01-17T09:17:36.571Z,98020.56
2023-01-17T09:20:06.408Z,98024.28
2023-01-17T09:22:36.359Z,98022.13
2023-01-17T09:25:04.098Z,98018.47
2023-01-17T09:27:31.814Z,98019.00
2023-01-17T09:29:59.435Z,98014.63
2023-01-17T09:32:27.054Z,98017.38
2023-01-17T09:34:57.978Z,98026.22
2023-01-17T09:37:25.707Z,98037.59
2023-01-17T09:39:53.294Z,98038.62
2023-01-17T09:42:28.823Z,98034.31
2023-01-17T09:44:57.383Z,98052.75
2023-01-17T09:47:43.125Z,98058.16
2023-01-17T09:50:33.228Z,98066.69
2023-01-17T09:53:08.110Z,98079.16
2023-01-17T09:55:41.254Z,98084.66
2023-01-17T09:58:13.893Z,98086.38
2023-01-17T10:01:17.223Z,98085.41
2023-01-17T10:04:06.806Z,98084.44
2023-01-17T10:06:52.754Z,98085.59
2023-01-17T10:09:22.991Z,98089.00
2023-01-17T10:12:01.157Z,98093.09
2023-01-17T10:14:50.125Z,98086.53
2023-01-17T10:17:39.059Z,98084.22
2023-01-17T10:20:54.935Z,98086.72
2023-01-17T10:23:43.777Z,98086.78
2023-01-17T10:26:17.986Z,98089.34
2023-01-17T10:28:53.083Z,98084.94
2023-01-17T10:31:26.538Z,98083.28
2023-01-17T10:34:03.647Z,98083.66
2023-01-17T10:36:44.682Z,98091.03
2023-01-17T10:39:24.921Z,98081.53
2023-01-17T10:42:17.389Z,98066.88
2023-01-17T10:45:00.471Z,98078.69
2023-01-17T10:47:32.100Z,98072.28
2023-01-17T10:50:01.904Z,98052.16
2023-01-17T10:52:57.840Z,98046.75
2023-01-17T10:55:38.946Z,98053.44
2023-01-17T10:58:14.583Z,98055.69
2023-01-17T11:00:50.491Z,98038.06
2023-01-17T11:03:23.859Z,98038.69
2023-01-17T11:06:24.108Z,98029.41
2023-01-17T11:08:59.465Z,98029.75
2023-01-17T11:11:45.153Z,98023.66
2023-01-17T11:14:24.050Z,98016.88
2023-01-17T11:17:07.152Z,98024.03
2023-01-17T11:19:40.309Z,98027.09
2023-01-17T11:22:09.409Z,98014.84
2023-01-17T11:24:52.847Z,98020.53
2023-01-17T11:27:30.931Z,98011.06
2023-01-17T11:30:20.780Z,97996.06
2023-01-17T11:32:57.182Z,97996.44
2023-01-17T11:35:32.841Z,97990.38
2023-01-17T11:38:03.459Z,97979.34
2023-01-17T11:40:44.975Z,97989.91
2023-01-17T11:43:12.783Z,97989.13
2023-01-17T11:45:41.535Z,97978.59
2023-01-17T11:48:09.087Z,97972.94
2023-01-17T11:50:42.662Z,97982.41
2023-01-17T11:53:19.404Z,97972.38
2023-01-17T11:56:18.943Z,97983.38
2023-01-17T11:58:51.041Z,97991.69
2023-01-17T12:01:34.569Z,97999.81
2023-01-17T12:04:20.591Z,98007.09
2023-01-17T12:06:58.031Z,98012.78
2023-01-17T12:09:43.806Z,98017.84
2023-01-17T12:12:58.182Z,98018.94
2023-01-17T12:15:47.954Z,98028.38
2023-01-17T12:18:34.200Z,98027.28
2023-01-17T12:21:07.673Z,98019.19
2023-01-17T12:23:59.643Z,98016.00
2023-01-17T12:26:27.622Z,98018.34
2023-01-17T12:29:29.419Z,98013.06
2023-01-17T12:32:22.442Z,98007.78
2023-01-17T12:35:09.376Z,98003.06
2023-01-17T12:37:43.391Z,97997.19
2023-01-17T12:40:31.884Z,98007.09
2023-01-17T12:43:28.679Z,98015.31
2023-01-17T12:46:01.350Z,98007.72
2023-01-17T12:48:34.618Z,98005.72
2023-01-17T12:51:18.007Z,98011.41
2023-01-17T12:54:10.490Z,98013.28
2023-01-17T12:56:50.521Z,98008.31
2023-01-17T12:59:35.267Z,98002.09
2023-01-17T13:02:14.048Z,98002.34
2023-01-17T13:05:00.266Z,97999.81
2023-01-17T13:07:45.475Z,98002.47
2023-01-17T13:10:32.062Z,97997.50
2023-01-17T13:13:04.558Z,97986.81
2023-01-17T13:15:40.557Z,97996.56
2023-01-17T13:18:11.863Z,98003.16
2023-01-17T13:20:52.896Z,98002.69
2023-01-17T13:23:42.396Z,98004.06
2023-01-17T13:26:31.086Z,98014.63
2023-01-17T13:29:22.778Z,98011.75
2023-01-17T13:32:14.975Z,98009.38
2023-01-17T13:35:02.095Z,98012.13
2023-01-17T13:38:04.935Z,98002.97
2023-01-17T13:40:50.956Z,97998.69
2023-01-17T13:43:27.852Z,97995.75
2023-01-17T13:46:01.344Z,97972.91
2023-01-17T13:48:32.187Z,97988.25
2023-01-17T13:51:02.265Z,97987.50
2023-01-17T13:53:31.400Z,97985.62
2023-01-17T13:56:32.885Z,97981.56
2023-01-17T13:59:03.688Z,97980.53
2023-01-17T14:01:34.802Z,97971.38
2023-01-17T14:04:06.385Z,97961.16
2023-01-17T14:06:36.711Z,97955.50
2023-01-17T14:09:14.620Z,97945.81
2023-01-17T14:12:15.073Z,97936.91
2023-01-17T14:14:42.823Z,97926.97
2023-01-17T14:17:20.453Z,97916.75
2023-01-17T14:19:51.244Z,97915.13
2023-01-17T14:22:21.639Z,97909.50
2023-01-17T14:25:11.037Z,97904.37
2023-01-17T14:28:03.602Z,97882.09
2023-01-17T14:30:40.411Z,97904.13
2023-01-17T14:33:19.609Z,97893.09
2023-01-17T14:35:58.610Z,97887.72
2023-01-17T14:38:27.700Z,97858.69
2023-01-17T14:41:27.581Z,97871.31
2023-01-17T14:43:59.558Z,97868.09
2023-01-17T14:46:33.322Z,97876.16
2023-01-17T14:49:25.337Z,97880.47
2023-01-17T14:52:03.410Z,97871.88
2023-01-17T14:54:31.012Z,97863.25
2023-01-17T14:57:28.662Z,97850.03
2023-01-17T15:00:19.848Z,97853.28
2023-01-17T15:02:50.696Z,97851.91
2023-01-17T15:05:21.329Z,97851.91
2023-01-17T15:07:53.112Z,97857.31
2023-01-17T15:10:29.602Z,97810.59
2023-01-17T15:13:06.549Z,97862.69
2023-01-17T15:15:42.226Z,97862.69
2023-01-17T15:18:23.066Z,97860.81
2023-01-17T15:21:03.751Z,97864.31
2023-01-17T15:23:41.644Z,97858.38
2023-01-17T15:26:15.046Z,97861.88
2023-01-17T15:28:46.084Z,97858.13
2023-01-17T15:31:26.844Z,97846.25
2023-01-17T15:33:57.647Z,97847.34
2023-01-17T15:36:33.023Z,97842.22
2023-01-17T15:39:05.831Z,97837.13
2023-01-17T15:41:39.194Z,97843.84
2023-01-17T15:44:08.429Z,97841.94
2023-01-17T15:46:43.207Z,97831.97
2023-01-17T15:49:20.746Z,97825.78
2023-01-17T15:52:16.704Z,97829.28
2023-01-17T15:54:55.551Z,97821.75
2023-01-17T15:57:39.365Z,97805.59
2023-01-17T16:00:18.332Z,97800.19
2023-01-17T16:02:50.001Z,97798.03
2023-01-17T16:05:23.888Z,97796.47
2023-01-17T16:07:56.466Z,97797.22
2023-01-17T16:10:28.686Z,97794.28
2023-01-17T16:12:57.095Z,97793.72
2023-01-17T16:15:26.195Z,97793.72
2023-01-17T16:17:58.635Z,97792.94
2023-01-17T16:20:35.694Z,97790.50
2023-01-17T16:23:03.710Z,97796.44
2023-01-17T16:25:32.828Z,97796.16
2023-01-17T16:28:03.766Z,97789.16
2023-01-17T16:30:34.715Z,97785.13
2023-01-17T16:33:04.499Z,97772.19
2023-01-17T16:35:35.371Z,97770.84
2023-01-17T16:38:05.581Z,97773.00
2023-01-17T16:40:45.161Z,97764.38
2023-01-17T16:43:14.931Z,97769.00
2023-01-17T16:45:54.102Z,97767.44
2023-01-17T16:48:22.115Z,97756.69
2023-01-17T16:50:52.889Z,97744.06
2023-01-17T16:53:24.792Z,97747.59
2023-01-17T16:55:56.984Z,97744.37
2023-01-17T16:58:25.038Z,97741.19
2023-01-17T17:00:52.784Z,97753.03
2023-01-17T17:03:22.571Z,97745.00
2023-01-17T17:06:01.096Z,97735.63
2023-01-17T17:08:29.969Z,97734.00
2023-01-17T17:11:17.898Z,97736.97
2023-01-17T17:13:47.548Z,97734.28
2023-01-17T17:16:17.558Z,97721.37
2023-01-17T17:18:47.407Z,97722.75
2023-01-17T17:21:19.903Z,97710.09
2023-01-17T17:23:50.970Z,97710.62
2023-01-17T17:26:23.555Z,97702.53
2023-01-17T17:28:55.133Z,97698.81
2023-01-17T17:31:22.818Z,97694.22
2023-01-17T17:33:50.503Z,97687.50
2023-01-17T17:36:18.572Z,97687.50
2023-01-17T17:38:56.784Z,97681.59
2023-01-17T17:41:35.905Z,97687.53
2023-01-17T17:44:06.715Z,97675.44
2023-01-17T17:46:35.083Z,97670.88
2023-01-17T17:49:02.805Z,97660.37
2023-01-17T17:51:31.825Z,97645.06
2023-01-17T17:54:02.945Z,97648.81
2023-01-17T17:56:31.935Z,97640.75
2023-01-17T17:59:01.394Z,97634.28
2023-01-17T18:01:31.131Z,97627.31
2023-01-17T18:04:03.173Z,97613.34
2023-01-17T18:06:31.320Z,97591.03
2023-01-17T18:08:58.921Z,97587.56
2023-01-17T18:11:27.817Z,97584.87
2023-01-17T18:13:57.498Z,97577.91
2023-01-17T18:16:41.475Z,97575.78
2023-01-17T18:19:30.732Z,97554.81
2023-01-17T18:21:58.443Z,97566.94
2023-01-17T18:24:28.749Z,97543.56
2023-01-17T18:27:01.281Z,97544.94
2023-01-17T18:29:31.154Z,97539.81
2023-01-17T18:31:58.808Z,97519.97
2023-01-17T18:34:29.609Z,97533.91
2023-01-17T18:36:58.054Z,97525.31
2023-01-17T18:39:28.693Z,97514.88
2023-01-17T18:41:56.504Z,97521.84
2023-01-17T18:44:24.375Z,97521.31
2023-01-17T18:46:54.696Z,97514.63
2023-01-17T18:49:22.761Z,97508.44
2023-01-17T18:51:51.251Z,97512.53
2023-01-17T18:54:20.573Z,97510.91
2023-01-17T18:56:48.267Z,97498.28
2023-01-17T18:59:19.784Z,97487.81
2023-01-17T19:01:50.057Z,97478.13
2023-01-17T19:04:18.872Z,97477.09
2023-01-17T19:06:48.636Z,97463.94
2023-01-17T19:09:19.501Z,97469.59
2023-01-17T19:11:50.082Z,97464.25
2023-01-17T19:14:17.651Z,97454.84
2023-01-17T19:16:45.480Z,97448.16
2023-01-17T19:19:16.408Z,97416.72
2023-01-17T19:21:44.356Z,97430.19
2023-01-17T19:24:14.307Z,97419.75
2023-01-17T19:26:43.025Z,97415.97
2023-01-17T19:29:11.033Z,97413.84
2023-01-17T19:31:42.781Z,97412.53
2023-01-17T19:34:11.491Z,97411.47
2023-01-17T19:36:42.424Z,97411.22
2023-01-17T19:39:10.602Z,97398.59
2023-01-17T19:41:44.640Z,97361.28
2023-01-17T19:44:15.539Z,97385.19
2023-01-17T19:46:44.018Z,97378.25
2023-01-17T19:49:11.684Z,97364.31
2023-01-17T19:51:40.395Z,97353.03
2023-01-17T19:54:08.482Z,97343.94
2023-01-17T19:56:36.270Z,97335.09
2023-01-17T19:59:03.944Z,97334.56
2023-01-17T20:01:33.678Z,97319.25
2023-01-17T20:04:03.140Z,97330.00
2023-01-17T20:06:35.411Z,97344.75
2023-01-17T20:09:04.363Z,97343.97
2023-01-17T20:11:32.138Z,97331.41
2023-01-17T20:14:01.031Z,97312.63
2023-01-17T20:16:31.761Z,97325.25
2023-01-17T20:19:02.548Z,97333.03
2023-01-17T20:21:32.252Z,97326.06
2023-01-17T20:24:04.280Z,97313.47
2023-01-17T20:26:35.803Z,97305.69
2023-01-17T20:29:10.616Z,97315.88
2023-01-17T20:31:39.410Z,97307.56
2023-01-17T20:34:12.035Z,97286.94
2023-01-17T20:36:41.574Z,97302.78
2023-01-17T20:39:11.006Z,97280.59
2023-01-17T20:41:40.726Z,97277.75
2023-01-17T20:44:13.347Z,97272.69
2023-01-17T20:46:41.938Z,97279.16
2023-01-17T20:49:15.466Z,97306.28
2023-01-17T20:51:44.704Z,97309.50
2023-01-17T20:54:18.184Z,97316.75
2023-01-17T20:56:48.550Z,97302.81
2023-01-17T20:59:18.962Z,97274.69
2023-01-17T21:01:46.742Z,97256.47
2023-01-17T21:04:17.975Z,97243.63
2023-01-17T21:06:45.754Z,97250.59
2023-01-17T21:09:17.107Z,97251.69
2023-01-17T21:11:44.848Z,97255.97
2023-01-17T21:14:14.537Z,97266.16
2023-01-17T21:16:42.230Z,97218.78
2023-01-17T21:19:12.027Z,97229.75
2023-01-17T21:21:42.171Z,97240.19
2023-01-17T21:24:11.506Z,97223.59
2023-01-17T21:26:39.964Z,97217.97
2023-01-17T21:29:07.527Z,97221.72
2023-01-17T21:31:36.687Z,97211.03
2023-01-17T21:34:07.234Z,97180.00
2023-01-17T21:36:37.976Z,97197.09
2023-01-17T21:39:12.660Z,97191.75
2023-01-17T21:41:45.555Z,97175.97
2023-01-17T21:44:19.545Z,97180.50
2023-01-17T21:46:47.964Z,97181.03
2023-01-17T21:49:19.152Z,97177.84
2023-01-17T21:52:00.663Z,97188.53
2023-01-17T21:54:47.897Z,97187.75
2023-01-17T21:57:35.933Z,97187.19
2023-01-17T22:00:07.974Z,97176.22
2023-01-17T22:02:35.577Z,97162.56
2023-01-17T22:05:03.149Z,97171.69
2023-01-17T22:07:30.820Z,97157.50
2023-01-17T22:09:58.373Z,97150.00
2023-01-17T22:12:26.301Z,97145.19
2023-01-17T22:14:54.567Z,97143.84
2023-01-17T22:17:24.705Z,97152.69
2023-01-17T22:19:52.270Z,97148.41
2023-01-17T22:22:19.896Z,97132.06
2023-01-17T22:24:47.492Z,97130.72
2023-01-17T22:27:16.588Z,97128.84
2023-01-17T22:29:44.267Z,97124.03
2023-01-17T22:32:13.945Z,97122.41
2023-01-17T22:34:44.014Z,97117.03
2023-01-17T22:37:11.589Z,97133.91
2023-01-17T22:39:40.046Z,97144.09
2023-01-17T22:42:09.713Z,97144.91
2023-01-17T22:44:37.495Z,97143.56
2023-01-17T22:47:07.435Z,97156.16
2023-01-17T22:49:35.083Z,97164.16
2023-01-17T22:52:02.713Z,97156.38
2023-01-17T22:54:30.332Z,97157.47
2023-01-17T22:56:59.867Z,97159.84
2023-01-17T22:59:29.574Z,97152.88
2023-01-17T23:01:57.125Z,97156.34
2023-01-17T23:04:24.725Z,97146.97
2023-01-17T23:06:53.525Z,97155.50
2023-01-17T23:09:23.659Z,97168.06
2023-01-17T23:11:57.243Z,97175.03
2023-01-17T23:14:27.536Z,97169.66
2023-01-17T23:17:12.761Z,97174.50
2023-01-17T23:19:51.059Z,97192.44
2023-01-17T23:22:27.099Z,97186.53
2023-01-17T23:24:57.166Z,97177.66
2023-01-17T23:27:42.085Z,97188.09
2023-01-17T23:30:14.866Z,97199.59
2023-01-17T23:32:48.351Z,97201.72
2023-01-17T23:35:18.790Z,97213.78
2023-01-17T23:38:06.447Z,97207.09
2023-01-17T23:40:36.133Z,97210.03
2023-01-17T23:43:23.633Z,97213.75
2023-01-17T23:45:58.163Z,97202.19
2023-01-17T23:48:27.281Z,97204.56
2023-01-17T23:51:08.178Z,97208.31
2023-01-17T23:53:37.416Z,97207.22
2023-01-17T23:56:17.498Z,97213.66
2023-01-17T23:58:50.330Z,97205.38
